ERU309 KDAB-KTPA
Flight info
| Callsign | ERU309 |
|---|---|
| Flight time | N/A |
| Altitude | 8000 |
| Route | KIZER T210 PUNQU |
| Aircraft | DA42/L-SBDGRY/S |
Departure
| Time | 2026-05-04 23:54 |
|---|---|
| Airport | Daytona Beach International Airport (KDAB) |
Arrival
| Time | N/A |
|---|---|
| Airport | Tampa International Airport (KTPA) |
| Time | Latitude | Longitude | Altitude | Speed | Heading |
|---|---|---|---|---|---|
| 2026-05-04 23:42 | 29.18575 | -81.05150 | 37 ft | 0 kts | 65° |
| 2026-05-04 23:50 | 29.18575 | -81.05149 | 37 ft | 1 kts | 66° |
| 2026-05-04 23:50 | 29.18556 | -81.05127 | 37 ft | 6 kts | 159° |
| 2026-05-04 23:50 | 29.18531 | -81.05123 | 37 ft | 0 kts | 204° |
| 2026-05-04 23:51 | 29.18527 | -81.05125 | 37 ft | 0 kts | 206° |
| 2026-05-04 23:51 | 29.18497 | -81.05144 | 37 ft | 12 kts | 210° |
| 2026-05-04 23:51 | 29.18485 | -81.05208 | 37 ft | 12 kts | 338° |
| 2026-05-04 23:52 | 29.18570 | -81.05249 | 37 ft | 13 kts | 337° |
| 2026-05-04 23:52 | 29.18612 | -81.05270 | 37 ft | 7 kts | 338° |
| 2026-05-04 23:52 | 29.18714 | -81.05318 | 37 ft | 18 kts | 335° |
| 2026-05-04 23:52 | 29.18826 | -81.05373 | 37 ft | 17 kts | 338° |
| 2026-05-04 23:53 | 29.18929 | -81.05422 | 37 ft | 16 kts | 336° |
| 2026-05-04 23:53 | 29.19027 | -81.05469 | 37 ft | 15 kts | 337° |
| 2026-05-04 23:53 | 29.19102 | -81.05526 | 37 ft | 12 kts | 292° |
| 2026-05-04 23:53 | 29.19082 | -81.05611 | 38 ft | 12 kts | 210° |
| 2026-05-04 23:54 | 29.18945 | -81.05564 | 37 ft | 44 kts | 157° |
| 2026-05-04 23:54 | 29.18500 | -81.05354 | 66 ft | 86 kts | 151° |
| 2026-05-04 23:54 | 29.17939 | -81.05054 | 341 ft | 90 kts | 145° |
| 2026-05-04 23:54 | 29.17392 | -81.04729 | 726 ft | 87 kts | 152° |
| 2026-05-04 23:55 | 29.16817 | -81.04488 | 1081 ft | 89 kts | 152° |
| 2026-05-04 23:55 | 29.16248 | -81.04242 | 1427 ft | 87 kts | 152° |
| 2026-05-04 23:55 | 29.15120 | -81.03742 | 2092 ft | 87 kts | 153° |
| 2026-05-04 23:56 | 29.14539 | -81.03502 | 2428 ft | 92 kts | 163° |
| 2026-05-04 23:56 | 29.13903 | -81.03664 | 2753 ft | 102 kts | 209° |
| 2026-05-04 23:56 | 29.13451 | -81.04293 | 3102 ft | 104 kts | 236° |
| 2026-05-04 23:56 | 29.13057 | -81.05001 | 3405 ft | 106 kts | 234° |
| 2026-05-04 23:57 | 29.12647 | -81.05693 | 3753 ft | 103 kts | 233° |
| 2026-05-04 23:57 | 29.12237 | -81.06355 | 4095 ft | 101 kts | 234° |
| 2026-05-04 23:57 | 29.11835 | -81.06994 | 4460 ft | 97 kts | 236° |
| 2026-05-04 23:57 | 29.11445 | -81.07608 | 4819 ft | 93 kts | 238° |
| 2026-05-04 23:58 | 29.11064 | -81.08204 | 5143 ft | 93 kts | 238° |
| 2026-05-04 23:58 | 29.10680 | -81.08804 | 5444 ft | 94 kts | 238° |
| 2026-05-04 23:58 | 29.10294 | -81.09407 | 5760 ft | 95 kts | 237° |
| 2026-05-04 23:58 | 29.09901 | -81.10020 | 6077 ft | 96 kts | 237° |
| 2026-05-04 23:59 | 29.09504 | -81.10637 | 6419 ft | 97 kts | 237° |
| 2026-05-04 23:59 | 29.09103 | -81.11261 | 6729 ft | 97 kts | 237° |
| 2026-05-04 23:59 | 29.08703 | -81.11882 | 7036 ft | 97 kts | 238° |
| 2026-05-04 23:59 | 29.08306 | -81.12498 | 7345 ft | 96 kts | 238° |
| 2026-05-05 00:00 | 29.07911 | -81.13112 | 7655 ft | 96 kts | 238° |
| 2026-05-05 00:00 | 29.07777 | -81.13320 | 7758 ft | 96 kts | 238° |
| 2026-05-05 00:00 | 29.07075 | -81.14421 | 8019 ft | 121 kts | 238° |
| 2026-05-05 00:00 | 29.06536 | -81.15269 | 8018 ft | 141 kts | 237° |
| 2026-05-05 00:01 | 29.05925 | -81.16216 | 8020 ft | 154 kts | 236° |
| 2026-05-05 00:01 | 29.05271 | -81.17225 | 8021 ft | 161 kts | 236° |
| 2026-05-05 00:01 | 29.04593 | -81.18271 | 8015 ft | 166 kts | 236° |
| 2026-05-05 00:01 | 29.03899 | -81.19343 | 8014 ft | 169 kts | 236° |
| 2026-05-05 00:02 | 29.03208 | -81.20415 | 8013 ft | 170 kts | 236° |
| 2026-05-05 00:02 | 29.02495 | -81.21521 | 8014 ft | 171 kts | 236° |
| 2026-05-05 00:02 | 29.01787 | -81.22619 | 8012 ft | 172 kts | 236° |
| 2026-05-05 00:02 | 29.01087 | -81.23704 | 8015 ft | 172 kts | 236° |
| 2026-05-05 00:03 | 29.00377 | -81.24803 | 8014 ft | 172 kts | 236° |
| 2026-05-05 00:03 | 28.99668 | -81.25902 | 8012 ft | 172 kts | 236° |
| 2026-05-05 00:03 | 28.98960 | -81.26997 | 8008 ft | 171 kts | 235° |
| 2026-05-05 00:03 | 28.98253 | -81.28091 | 8008 ft | 171 kts | 235° |
| 2026-05-05 00:04 | 28.97548 | -81.29183 | 8010 ft | 171 kts | 235° |
| 2026-05-05 00:04 | 28.96841 | -81.30276 | 8009 ft | 171 kts | 236° |
| 2026-05-05 00:04 | 28.96136 | -81.31368 | 8014 ft | 171 kts | 236° |
| 2026-05-05 00:04 | 28.95429 | -81.32461 | 8018 ft | 171 kts | 236° |
| 2026-05-05 00:05 | 28.94716 | -81.33565 | 8016 ft | 171 kts | 235° |
| 2026-05-05 00:05 | 28.94021 | -81.34638 | 8014 ft | 170 kts | 236° |
| 2026-05-05 00:05 | 28.93317 | -81.35726 | 8013 ft | 170 kts | 235° |
| 2026-05-05 00:05 | 28.92613 | -81.36812 | 8012 ft | 170 kts | 236° |
| 2026-05-05 00:06 | 28.92023 | -81.37973 | 8014 ft | 169 kts | 244° |
| 2026-05-05 00:06 | 28.91476 | -81.39194 | 7867 ft | 176 kts | 244° |
| 2026-05-05 00:06 | 28.90914 | -81.40456 | 7712 ft | 180 kts | 244° |
| 2026-05-05 00:06 | 28.90342 | -81.41735 | 7571 ft | 182 kts | 244° |
| 2026-05-05 00:07 | 28.89764 | -81.43024 | 7398 ft | 184 kts | 244° |
| 2026-05-05 00:07 | 28.89174 | -81.44340 | 7165 ft | 188 kts | 244° |
| 2026-05-05 00:07 | 28.88575 | -81.45671 | 6925 ft | 190 kts | 243° |
| 2026-05-05 00:07 | 28.87972 | -81.47012 | 6686 ft | 190 kts | 243° |
| 2026-05-05 00:08 | 28.87371 | -81.48354 | 6452 ft | 190 kts | 243° |
| 2026-05-05 00:08 | 28.86769 | -81.49695 | 6193 ft | 190 kts | 243° |
| 2026-05-05 00:08 | 28.86171 | -81.51026 | 6001 ft | 186 kts | 243° |
| 2026-05-05 00:08 | 28.85597 | -81.52302 | 5992 ft | 176 kts | 243° |
| 2026-05-05 00:09 | 28.85046 | -81.53525 | 5990 ft | 171 kts | 243° |
| 2026-05-05 00:09 | 28.84550 | -81.54740 | 5991 ft | 168 kts | 252° |
| 2026-05-05 00:09 | 28.84297 | -81.56028 | 5994 ft | 166 kts | 257° |
| 2026-05-05 00:09 | 28.84069 | -81.57315 | 5989 ft | 165 kts | 258° |
| 2026-05-05 00:10 | 28.83844 | -81.58594 | 5994 ft | 164 kts | 258° |
| 2026-05-05 00:10 | 28.83618 | -81.59870 | 5998 ft | 164 kts | 257° |
| 2026-05-05 00:10 | 28.83391 | -81.61147 | 5991 ft | 165 kts | 258° |
| 2026-05-05 00:10 | 28.83163 | -81.62430 | 5992 ft | 165 kts | 257° |
| 2026-05-05 00:11 | 28.82935 | -81.63714 | 5994 ft | 165 kts | 257° |
| 2026-05-05 00:11 | 28.82706 | -81.64998 | 5993 ft | 165 kts | 257° |
| 2026-05-05 00:11 | 28.82187 | -81.66143 | 5983 ft | 166 kts | 224° |
| 2026-05-05 00:11 | 28.81199 | -81.66824 | 5993 ft | 167 kts | 208° |
| 2026-05-05 00:12 | 28.80158 | -81.67410 | 5992 ft | 167 kts | 209° |
| 2026-05-05 00:12 | 28.79137 | -81.68038 | 5992 ft | 167 kts | 211° |
| 2026-05-05 00:12 | 28.78131 | -81.68697 | 5992 ft | 167 kts | 212° |
| 2026-05-05 00:12 | 28.77127 | -81.69363 | 5992 ft | 167 kts | 212° |
| 2026-05-05 00:13 | 28.76123 | -81.70031 | 5995 ft | 167 kts | 212° |
| 2026-05-05 00:13 | 28.75120 | -81.70696 | 5992 ft | 167 kts | 212° |
| 2026-05-05 00:13 | 28.74117 | -81.71361 | 5991 ft | 167 kts | 212° |
| 2026-05-05 00:13 | 28.73114 | -81.72026 | 5991 ft | 166 kts | 212° |
| 2026-05-05 00:14 | 28.72113 | -81.72688 | 5992 ft | 166 kts | 212° |
| 2026-05-05 00:14 | 28.71113 | -81.73351 | 5991 ft | 166 kts | 212° |
| 2026-05-05 00:14 | 28.70113 | -81.74014 | 5988 ft | 166 kts | 212° |
| 2026-05-05 00:14 | 28.69112 | -81.74676 | 5989 ft | 167 kts | 212° |
| 2026-05-05 00:15 | 28.68108 | -81.75341 | 5990 ft | 167 kts | 212° |
| 2026-05-05 00:15 | 28.67103 | -81.76007 | 5987 ft | 167 kts | 212° |
| 2026-05-05 00:15 | 28.66100 | -81.76671 | 5987 ft | 167 kts | 212° |
| 2026-05-05 00:15 | 28.65097 | -81.77334 | 5986 ft | 166 kts | 212° |
| 2026-05-05 00:16 | 28.64098 | -81.77994 | 5986 ft | 166 kts | 212° |
| 2026-05-05 00:16 | 28.63439 | -81.78430 | 5988 ft | 166 kts | 212° |
| 2026-05-05 00:16 | 28.62441 | -81.79090 | 5987 ft | 166 kts | 211° |
| 2026-05-05 00:16 | 28.61440 | -81.79752 | 5990 ft | 167 kts | 212° |
| 2026-05-05 00:17 | 28.60435 | -81.80417 | 5986 ft | 167 kts | 212° |
| 2026-05-05 00:17 | 28.59100 | -81.81299 | 5984 ft | 168 kts | 211° |
| 2026-05-05 00:17 | 28.58090 | -81.81966 | 5983 ft | 168 kts | 211° |
| 2026-05-05 00:17 | 28.57184 | -81.82785 | 5983 ft | 166 kts | 226° |
| 2026-05-05 00:18 | 28.56644 | -81.83427 | 5984 ft | 166 kts | 227° |
| 2026-05-05 00:18 | 28.55848 | -81.84376 | 5983 ft | 166 kts | 227° |
| 2026-05-05 00:18 | 28.55053 | -81.85326 | 5981 ft | 166 kts | 227° |
| 2026-05-05 00:18 | 28.54255 | -81.86278 | 5979 ft | 166 kts | 227° |
| 2026-05-05 00:19 | 28.53458 | -81.87228 | 5983 ft | 166 kts | 227° |
| 2026-05-05 00:19 | 28.52660 | -81.88180 | 5982 ft | 167 kts | 227° |
| 2026-05-05 00:19 | 28.51859 | -81.89135 | 5980 ft | 167 kts | 227° |
| 2026-05-05 00:19 | 28.51060 | -81.90086 | 5979 ft | 166 kts | 227° |
| 2026-05-05 00:20 | 28.50272 | -81.91024 | 5977 ft | 167 kts | 227° |
| 2026-05-05 00:20 | 28.49455 | -81.91997 | 5790 ft | 176 kts | 227° |
| 2026-05-05 00:20 | 28.48592 | -81.93029 | 5553 ft | 183 kts | 227° |
| 2026-05-05 00:20 | 28.47701 | -81.94090 | 5299 ft | 187 kts | 227° |
| 2026-05-05 00:21 | 28.46792 | -81.95170 | 5058 ft | 190 kts | 226° |
| 2026-05-05 00:21 | 28.45886 | -81.96246 | 4980 ft | 184 kts | 226° |
| 2026-05-05 00:21 | 28.45013 | -81.97280 | 4976 ft | 179 kts | 226° |
| 2026-05-05 00:21 | 28.44164 | -81.98287 | 4979 ft | 175 kts | 226° |
| 2026-05-05 00:22 | 28.43327 | -81.99281 | 4983 ft | 173 kts | 226° |
| 2026-05-05 00:22 | 28.42497 | -82.00268 | 4981 ft | 172 kts | 227° |
| 2026-05-05 00:22 | 28.41671 | -82.01250 | 4984 ft | 172 kts | 226° |
| 2026-05-05 00:22 | 28.40847 | -82.02230 | 4983 ft | 171 kts | 226° |
| 2026-05-05 00:23 | 28.40022 | -82.03209 | 4982 ft | 171 kts | 226° |
| 2026-05-05 00:23 | 28.39199 | -82.04186 | 4983 ft | 171 kts | 226° |
| 2026-05-05 00:23 | 28.38376 | -82.05164 | 4986 ft | 172 kts | 226° |
| 2026-05-05 00:23 | 28.37550 | -82.06144 | 4983 ft | 172 kts | 226° |
| 2026-05-05 00:24 | 28.36722 | -82.07125 | 4993 ft | 172 kts | 226° |